Idabel, OK (74745)

6:57 PM CST on February 09, 2016 (GMT -0600)
Stone Haven | | Change Station
CLOSE
Current Station
Personal Weather Station
Location: Idabel, OK
Elevation: 489 ft
Nearby Weather Stations

Elev 489 ft 33.87 °N, 94.83 °W | Updated 1 second ago

Clear
Clear
46.4 °F
Feels Like 43 °F
N
6.0
Wind Variable Wind from NW
Gusts 10.0 mph

Today
High -- | Low -- °F
--% Chance of Precip.
Yesterday
High -- | Low -- °F
Precip. -- in
Pressure 30.24 in
Visibility 10.0 miles
Clouds Clear
Windchill 43 °F
Dew Point 23 °F
Humidity 39%
Rainfall 0.00 in
Snow Depth Not available.
7:09 AM 5:57 PM
Waxing Crescent, 3% visible
METAR K4O4 100035Z AUTO 33008G15KT 10SM CLR 07/M08 A3024 RMK AO2
Pressure 30.24 in
Visibility 10.0 miles
Clouds Clear
Windchill 43 °F
Dew Point 23 °F
Humidity 39%
Rainfall 0.00 in
Snow Depth Not available.
7:09 AM 5:57 PM
Waxing Crescent, 3% visible
METAR K4O4 100035Z AUTO 33008G15KT 10SM CLR 07/M08 A3024 RMK AO2

10-Day Weather Forecast

Almanac

Astronomy

Feb. 09, 2016 Rise Set
Actual Time
Civil Twilight
Nautical Twilight
Astronomical Twilight
Moon
Length of Visible Light
Length of Day
Tomorrow will be .
, % of the Moon is Illuminated

Today's Extremes

State Highs State Lows

Community

WunderPhotos

Upload Photos

1,891,752 photos uploaded!

WunderBlog® & News

Nearby

Air Quality

  Air Quality AQ Index Pollutant
Not available.

Snow Depth

Station Depth Elevation

Earthquake Activity

City Distance Mag. Time & Date
Minimum magnitude displayed is 2.5.

Coastal Water Temperatures

Place Temperature

Stations

Nearby Weather Stations

Station Location Temp. Windchill Dew Point Humidity Wind Precip. Elev Updated Type
                   

Watches & Warnings

There are currently no watches in effect.